createdAt,value
2022-08-26T00:00:59.693Z,2.00
2022-08-26T00:06:31.518Z,2.00
2022-08-26T00:12:03.137Z,2.00
2022-08-26T00:17:35.137Z,2.00
2022-08-26T00:23:07.168Z,1.00
2022-08-26T00:28:38.981Z,2.00
2022-08-26T00:34:11.425Z,1.00
2022-08-26T00:39:42.960Z,0.00
2022-08-26T00:45:14.515Z,2.00
2022-08-26T00:50:46.375Z,2.00
2022-08-26T00:56:18.230Z,2.00
2022-08-26T01:01:49.922Z,2.00
2022-08-26T01:07:22.207Z,2.00
2022-08-26T01:12:54.402Z,2.00
2022-08-26T01:18:26.305Z,1.00
2022-08-26T01:29:27.538Z,2.00
2022-08-26T01:34:59.125Z,2.00
2022-08-26T01:51:34.535Z,2.00
2022-08-26T01:57:06.265Z,2.00
2022-08-26T02:02:38.196Z,2.00
2022-08-26T02:08:09.843Z,0.00
2022-08-26T02:19:17.102Z,2.00
2022-08-26T02:24:44.603Z,2.00
2022-08-26T02:30:17.208Z,2.00
2022-08-26T02:35:49.167Z,1.00
2022-08-26T02:46:50.969Z,1.00
2022-08-26T02:52:22.762Z,0.00
2022-08-26T02:57:54.257Z,2.00
2022-08-26T03:03:26.289Z,1.00
2022-08-26T03:08:58.238Z,2.00
2022-08-26T03:25:33.428Z,1.00
2022-08-26T03:31:05.355Z,3.00
2022-08-26T03:36:36.940Z,2.00
2022-08-26T03:47:40.850Z,8.00
2022-08-26T03:53:15.026Z,17.00
2022-08-26T03:58:46.830Z,44.00
2022-08-26T04:09:50.037Z,231.00
2022-08-26T04:15:23.544Z,462.00
2022-08-26T04:20:55.364Z,977.00
2022-08-26T04:26:27.003Z,2034.00
2022-08-26T04:31:59.416Z,2775.00
2022-08-26T04:37:31.126Z,3937.00
2022-08-26T04:43:02.987Z,6872.00
2022-08-26T04:48:34.968Z,11825.00
2022-08-26T04:54:06.877Z,16001.00
2022-08-26T04:59:39.542Z,15852.00
2022-08-26T05:05:10.939Z,14618.00
2022-08-26T05:10:42.763Z,12152.00
2022-08-26T05:16:14.432Z,12445.00
2022-08-26T05:21:46.139Z,14812.00
2022-08-26T05:27:18.095Z,21170.00
2022-08-26T05:32:54.799Z,17104.00
2022-08-26T05:38:22.239Z,19623.00
2022-08-26T05:43:54.166Z,19458.00
2022-08-26T05:54:58.042Z,1287.00
2022-08-26T06:00:29.936Z,3229.00
2022-08-26T06:06:01.739Z,0.00
2022-08-26T06:11:35.365Z,0.00
2022-08-26T06:17:07.347Z,0.00
2022-08-26T06:28:11.387Z,10418.00
2022-08-26T06:33:43.835Z,13247.00
2022-08-26T06:50:16.842Z,11793.00
2022-08-26T06:55:49.050Z,8271.00
2022-08-26T07:01:21.038Z,4969.00
2022-08-26T07:12:27.955Z,0.00
2022-08-26T07:18:02.577Z,0.00
2022-08-26T07:23:34.898Z,0.00
2022-08-26T07:29:07.088Z,0.00
2022-08-26T07:34:38.952Z,0.00
2022-08-26T07:40:10.904Z,0.00
2022-08-26T07:45:43.108Z,4157.00
2022-08-26T07:51:14.854Z,6078.00
2022-08-26T07:56:46.640Z,4990.00
2022-08-26T08:02:20.366Z,5970.00
2022-08-26T08:07:53.561Z,7834.00
2022-08-26T08:13:24.120Z,10940.00
2022-08-26T08:18:55.399Z,14767.00
2022-08-26T08:24:27.111Z,16710.00
2022-08-26T08:29:58.837Z,17245.00
2022-08-26T08:35:30.750Z,17245.00
2022-08-26T08:46:34.230Z,14563.00
2022-08-26T08:52:06.220Z,11788.00
2022-08-26T08:57:37.756Z,7105.00
2022-08-26T09:03:09.795Z,294.00
2022-08-26T09:08:41.551Z,0.00
2022-08-26T09:14:13.412Z,0.00
2022-08-26T09:19:45.330Z,0.00
2022-08-26T09:25:16.879Z,0.00
2022-08-26T09:30:48.715Z,0.00
2022-08-26T09:36:20.611Z,1.00
2022-08-26T09:41:52.762Z,3909.00
2022-08-26T09:47:24.741Z,9532.00
2022-08-26T09:52:56.536Z,6691.00
2022-08-26T09:58:28.292Z,5791.00
2022-08-26T10:04:00.397Z,7812.00
2022-08-26T10:09:32.390Z,8461.00
2022-08-26T10:15:05.862Z,7592.00
2022-08-26T10:20:38.068Z,7681.00
2022-08-26T10:26:09.663Z,6317.00
2022-08-26T10:31:41.451Z,11401.00
2022-08-26T10:42:45.314Z,11860.00
2022-08-26T10:48:17.355Z,7563.00
2022-08-26T10:53:51.383Z,8004.00
2022-08-26T11:04:53.045Z,6807.00
2022-08-26T11:10:25.019Z,6681.00
2022-08-26T11:15:56.780Z,4829.00
2022-08-26T11:18:08.810Z,5374.00
2022-08-26T11:23:41.646Z,7408.00
2022-08-26T11:29:13.639Z,9064.00
2022-08-26T11:34:44.403Z,8926.00
2022-08-26T11:40:16.193Z,10851.00
2022-08-26T11:45:48.164Z,7852.00
2022-08-26T11:51:20.415Z,5644.00
2022-08-26T11:56:52.270Z,4217.00
2022-08-26T12:02:24.234Z,3345.00
2022-08-26T12:07:56.048Z,2470.00
2022-08-26T12:13:27.964Z,1278.00
2022-08-26T12:18:59.566Z,3580.00
2022-08-26T12:24:31.209Z,6663.00
2022-08-26T12:30:02.968Z,7682.00
2022-08-26T12:35:34.304Z,10354.00
2022-08-26T12:41:05.701Z,11965.00
2022-08-26T12:46:37.472Z,12716.00
2022-08-26T12:52:09.319Z,15422.00
2022-08-26T12:57:41.147Z,13712.00
2022-08-26T13:03:12.969Z,14489.00
2022-08-26T13:08:45.352Z,17630.00
2022-08-26T13:14:21.254Z,16639.00
2022-08-26T13:19:48.798Z,18322.00
2022-08-26T13:25:20.672Z,18944.00
2022-08-26T13:30:52.492Z,17031.00
2022-08-26T13:36:24.300Z,18600.00
2022-08-26T13:41:56.295Z,18945.00
2022-08-26T13:47:27.977Z,21166.00
2022-08-26T13:52:59.543Z,17611.00
2022-08-26T13:58:31.358Z,18380.00
2022-08-26T14:04:02.699Z,21235.00
2022-08-26T14:09:38.403Z,23903.00
2022-08-26T14:15:07.226Z,21272.00
2022-08-26T14:26:10.375Z,23480.00
2022-08-26T14:31:42.013Z,23157.00
2022-08-26T14:42:47.885Z,24159.00
2022-08-26T14:53:47.761Z,22789.00
2022-08-26T14:59:18.946Z,21657.00
2022-08-26T15:04:50.316Z,24663.00
2022-08-26T15:10:21.787Z,20570.00
2022-08-26T15:15:53.620Z,19557.00
2022-08-26T15:21:25.339Z,19669.00
2022-08-26T15:26:56.742Z,20356.00
2022-08-26T15:32:28.650Z,19757.00
2022-08-26T15:38:00.427Z,18901.00
2022-08-26T15:49:03.524Z,18081.00
2022-08-26T15:54:35.761Z,17912.00
2022-08-26T16:00:07.415Z,18084.00
2022-08-26T16:05:39.246Z,17432.00
2022-08-26T16:11:10.832Z,17135.00
2022-08-26T16:16:44.121Z,16812.00
2022-08-26T16:22:16.107Z,16352.00
2022-08-26T16:27:47.494Z,15513.00
2022-08-26T16:33:29.114Z,14653.00
2022-08-26T16:38:50.723Z,14060.00
2022-08-26T16:49:53.860Z,12697.00
2022-08-26T16:55:25.359Z,12121.00
2022-08-26T17:00:57.120Z,11094.00
2022-08-26T17:06:28.998Z,9635.00
2022-08-26T17:12:00.912Z,7913.00
2022-08-26T17:17:32.498Z,5037.00
2022-08-26T17:23:04.248Z,3844.00
2022-08-26T17:28:35.392Z,3065.00
2022-08-26T17:34:06.822Z,2499.00
2022-08-26T17:39:38.219Z,1919.00
2022-08-26T17:45:09.861Z,1546.00
2022-08-26T17:50:41.548Z,1146.00
2022-08-26T17:56:13.282Z,832.00
2022-08-26T18:01:45.115Z,647.00
2022-08-26T18:07:16.945Z,486.00
2022-08-26T18:12:48.828Z,320.00
2022-08-26T18:19:52.435Z,118.00
2022-08-26T18:25:24.291Z,42.00
2022-08-26T18:30:57.414Z,13.00
2022-08-26T18:36:29.480Z,4.00
2022-08-26T19:18:31.864Z,0.00
2022-08-26T19:29:39.088Z,2.00
2022-08-26T19:35:11.976Z,2.00
2022-08-26T19:40:44.281Z,2.00
2022-08-26T19:46:16.342Z,3.00
2022-08-26T19:51:48.167Z,2.00
2022-08-26T19:57:20.010Z,2.00
2022-08-26T20:02:51.618Z,1.00
2022-08-26T20:08:23.667Z,0.00
2022-08-26T20:13:55.430Z,1.00
2022-08-26T20:19:27.296Z,0.00
2022-08-26T20:24:58.771Z,2.00
2022-08-26T20:30:30.638Z,1.00
2022-08-26T20:36:02.611Z,2.00
2022-08-26T20:41:33.960Z,2.00
2022-08-26T20:47:05.506Z,1.00
2022-08-26T20:52:37.291Z,0.00
2022-08-26T20:58:09.146Z,0.00
2022-08-26T21:03:40.878Z,1.00
2022-08-26T21:09:12.598Z,1.00
2022-08-26T21:14:48.953Z,0.00
2022-08-26T21:20:16.658Z,1.00
2022-08-26T21:25:48.792Z,0.00
2022-08-26T21:31:20.648Z,0.00
2022-08-26T21:36:52.229Z,0.00
2022-08-26T21:42:24.067Z,1.00
2022-08-26T21:47:55.768Z,2.00
2022-08-26T21:53:27.750Z,1.00
2022-08-26T21:58:59.496Z,0.00
2022-08-26T22:04:31.334Z,1.00
2022-08-26T22:10:03.291Z,0.00
2022-08-26T22:15:35.324Z,0.00
2022-08-26T22:21:07.441Z,2.00
2022-08-26T22:26:39.404Z,1.00
2022-08-26T22:32:11.329Z,2.00
2022-08-26T22:37:43.185Z,0.00
2022-08-26T22:43:15.009Z,0.00
2022-08-26T22:48:46.859Z,0.00
2022-08-26T22:54:18.818Z,2.00
2022-08-26T22:59:50.619Z,0.00
2022-08-26T23:10:53.787Z,1.00
2022-08-26T23:16:25.749Z,0.00
2022-08-26T23:21:57.888Z,1.00
2022-08-26T23:26:33.347Z,1.00
2022-08-26T23:32:04.082Z,2.00
2022-08-26T23:37:34.959Z,0.00
2022-08-26T23:43:06.948Z,2.00
2022-08-26T23:48:38.712Z,2.00
2022-08-26T23:54:10.526Z,1.00
2022-08-26T23:59:42.118Z,1.00
